sensor_id;sensor_type;location;lat;lon;timestamp;temperature;humidity
20174;DHT22;10246;50.620;7.232;2022-12-07T00:00:44;5.30;23.40
20174;DHT22;10246;50.620;7.232;2022-12-07T00:03:11;5.40;23.40
20174;DHT22;10246;50.620;7.232;2022-12-07T00:05:37;5.40;23.40
20174;DHT22;10246;50.620;7.232;2022-12-07T00:08:05;5.30;23.30
20174;DHT22;10246;50.620;7.232;2022-12-07T00:10:33;5.40;23.80
20174;DHT22;10246;50.620;7.232;2022-12-07T00:13:01;5.40;23.40
20174;DHT22;10246;50.620;7.232;2022-12-07T00:15:27;5.40;23.40
20174;DHT22;10246;50.620;7.232;2022-12-07T00:17:54;5.40;23.70
20174;DHT22;10246;50.620;7.232;2022-12-07T00:20:21;5.40;23.70
20174;DHT22;10246;50.620;7.232;2022-12-07T00:22:48;5.40;23.90
20174;DHT22;10246;50.620;7.232;2022-12-07T00:25:16;5.40;23.40
20174;DHT22;10246;50.620;7.232;2022-12-07T00:27:42;5.40;23.60
20174;DHT22;10246;50.620;7.232;2022-12-07T00:30:09;5.40;23.70
20174;DHT22;10246;50.620;7.232;2022-12-07T00:32:37;5.40;23.90
20174;DHT22;10246;50.620;7.232;2022-12-07T00:35:05;5.50;23.50
20174;DHT22;10246;50.620;7.232;2022-12-07T00:37:31;5.50;24.10
20174;DHT22;10246;50.620;7.232;2022-12-07T00:39:58;5.50;24.00
20174;DHT22;10246;50.620;7.232;2022-12-07T00:42:26;5.60;23.50
20174;DHT22;10246;50.620;7.232;2022-12-07T00:44:53;5.50;23.50
20174;DHT22;10246;50.620;7.232;2022-12-07T00:47:19;5.50;23.80
20174;DHT22;10246;50.620;7.232;2022-12-07T00:49:46;5.40;24.60
20174;DHT22;10246;50.620;7.232;2022-12-07T00:52:13;5.40;24.40
20174;DHT22;10246;50.620;7.232;2022-12-07T00:54:40;5.40;25.40
20174;DHT22;10246;50.620;7.232;2022-12-07T00:57:07;5.40;25.10
20174;DHT22;10246;50.620;7.232;2022-12-07T00:59:35;5.40;25.30
20174;DHT22;10246;50.620;7.232;2022-12-07T01:02:03;5.40;25.50
20174;DHT22;10246;50.620;7.232;2022-12-07T01:04:30;5.40;25.80
20174;DHT22;10246;50.620;7.232;2022-12-07T01:06:59;5.40;26.00
20174;DHT22;10246;50.620;7.232;2022-12-07T01:09:26;5.40;26.20
20174;DHT22;10246;50.620;7.232;2022-12-07T01:11:53;5.40;26.10
20174;DHT22;10246;50.620;7.232;2022-12-07T01:14:19;5.50;26.40
20174;DHT22;10246;50.620;7.232;2022-12-07T01:16:48;5.40;26.40
20174;DHT22;10246;50.620;7.232;2022-12-07T01:19:14;5.50;26.30
20174;DHT22;10246;50.620;7.232;2022-12-07T01:21:41;5.50;26.70
20174;DHT22;10246;50.620;7.232;2022-12-07T01:24:11;5.50;26.60
20174;DHT22;10246;50.620;7.232;2022-12-07T01:26:38;5.60;26.00
20174;DHT22;10246;50.620;7.232;2022-12-07T01:29:05;5.60;26.10
20174;DHT22;10246;50.620;7.232;2022-12-07T01:31:33;5.50;26.00
20174;DHT22;10246;50.620;7.232;2022-12-07T01:34:01;5.60;26.20
20174;DHT22;10246;50.620;7.232;2022-12-07T01:36:30;5.50;26.40
20174;DHT22;10246;50.620;7.232;2022-12-07T01:39:02;5.60;26.50
20174;DHT22;10246;50.620;7.232;2022-12-07T01:41:30;5.60;26.50
20174;DHT22;10246;50.620;7.232;2022-12-07T01:44:16;5.50;26.60
20174;DHT22;10246;50.620;7.232;2022-12-07T01:46:44;5.50;26.50
20174;DHT22;10246;50.620;7.232;2022-12-07T01:49:17;5.60;26.70
20174;DHT22;10246;50.620;7.232;2022-12-07T01:51:46;5.50;26.90
20174;DHT22;10246;50.620;7.232;2022-12-07T01:54:14;5.50;27.00
20174;DHT22;10246;50.620;7.232;2022-12-07T01:56:47;5.60;27.20
20174;DHT22;10246;50.620;7.232;2022-12-07T01:59:15;5.60;27.10
20174;DHT22;10246;50.620;7.232;2022-12-07T02:01:43;5.60;27.10
20174;DHT22;10246;50.620;7.232;2022-12-07T02:04:10;5.70;26.80
20174;DHT22;10246;50.620;7.232;2022-12-07T02:06:39;5.70;26.20
20174;DHT22;10246;50.620;7.232;2022-12-07T02:09:07;5.70;26.30
20174;DHT22;10246;50.620;7.232;2022-12-07T02:11:34;5.70;26.40
20174;DHT22;10246;50.620;7.232;2022-12-07T02:14:01;5.70;26.30
20174;DHT22;10246;50.620;7.232;2022-12-07T02:16:34;5.60;26.60
20174;DHT22;10246;50.620;7.232;2022-12-07T02:19:24;5.70;26.30
20174;DHT22;10246;50.620;7.232;2022-12-07T02:22:17;5.70;26.20
20174;DHT22;10246;50.620;7.232;2022-12-07T02:24:54;5.80;26.20
20174;DHT22;10246;50.620;7.232;2022-12-07T02:27:38;5.80;25.70
20174;DHT22;10246;50.620;7.232;2022-12-07T02:30:08;5.80;25.30
20174;DHT22;10246;50.620;7.232;2022-12-07T02:32:44;5.80;24.10
20174;DHT22;10246;50.620;7.232;2022-12-07T02:35:15;5.80;23.60
20174;DHT22;10246;50.620;7.232;2022-12-07T02:37:51;5.90;23.70
20174;DHT22;10246;50.620;7.232;2022-12-07T02:40:22;5.90;23.30
20174;DHT22;10246;50.620;7.232;2022-12-07T02:42:53;5.90;23.70
20174;DHT22;10246;50.620;7.232;2022-12-07T02:45:25;5.90;23.30
20174;DHT22;10246;50.620;7.232;2022-12-07T02:47:56;5.90;23.70
20174;DHT22;10246;50.620;7.232;2022-12-07T02:50:26;6.00;23.60
20174;DHT22;10246;50.620;7.232;2022-12-07T02:52:53;6.00;23.00
20174;DHT22;10246;50.620;7.232;2022-12-07T02:55:26;6.00;22.40
20174;DHT22;10246;50.620;7.232;2022-12-07T02:58:15;6.00;22.00
20174;DHT22;10246;50.620;7.232;2022-12-07T03:00:52;6.00;22.50
20174;DHT22;10246;50.620;7.232;2022-12-07T03:03:21;6.00;22.10
20174;DHT22;10246;50.620;7.232;2022-12-07T03:05:59;6.00;22.50
20174;DHT22;10246;50.620;7.232;2022-12-07T03:08:36;6.00;22.50
20174;DHT22;10246;50.620;7.232;2022-12-07T03:11:07;6.00;22.30
20174;DHT22;10246;50.620;7.232;2022-12-07T03:13:39;6.00;22.30
20174;DHT22;10246;50.620;7.232;2022-12-07T03:16:14;6.00;22.50
20174;DHT22;10246;50.620;7.232;2022-12-07T03:18:46;6.10;21.10
20174;DHT22;10246;50.620;7.232;2022-12-07T03:21:16;6.10;20.60
20174;DHT22;10246;50.620;7.232;2022-12-07T03:23:49;6.10;20.60
20174;DHT22;10246;50.620;7.232;2022-12-07T03:26:19;6.10;20.70
20174;DHT22;10246;50.620;7.232;2022-12-07T03:28:51;6.20;20.60
20174;DHT22;10246;50.620;7.232;2022-12-07T03:31:23;6.10;20.70
20174;DHT22;10246;50.620;7.232;2022-12-07T03:33:54;6.10;20.60
20174;DHT22;10246;50.620;7.232;2022-12-07T03:36:27;6.20;20.80
20174;DHT22;10246;50.620;7.232;2022-12-07T03:38:58;6.30;20.20
20174;DHT22;10246;50.620;7.232;2022-12-07T03:41:31;6.20;20.20
20174;DHT22;10246;50.620;7.232;2022-12-07T03:43:58;6.20;20.20
20174;DHT22;10246;50.620;7.232;2022-12-07T03:46:35;6.20;20.30
20174;DHT22;10246;50.620;7.232;2022-12-07T03:49:08;6.20;20.70
20174;DHT22;10246;50.620;7.232;2022-12-07T03:51:40;6.10;21.30
20174;DHT22;10246;50.620;7.232;2022-12-07T03:54:13;6.00;21.70
20174;DHT22;10246;50.620;7.232;2022-12-07T03:56:42;6.10;21.90
20174;DHT22;10246;50.620;7.232;2022-12-07T03:59:11;6.10;21.50
20174;DHT22;10246;50.620;7.232;2022-12-07T04:01:41;6.20;21.10
20174;DHT22;10246;50.620;7.232;2022-12-07T04:04:08;6.20;21.10
20174;DHT22;10246;50.620;7.232;2022-12-07T04:06:35;6.20;20.90
20174;DHT22;10246;50.620;7.232;2022-12-07T04:09:02;6.20;21.00
20174;DHT22;10246;50.620;7.232;2022-12-07T04:11:28;6.20;21.50
20174;DHT22;10246;50.620;7.232;2022-12-07T04:13:55;6.10;22.10
20174;DHT22;10246;50.620;7.232;2022-12-07T04:16:41;6.10;22.20
20174;DHT22;10246;50.620;7.232;2022-12-07T04:19:08;6.20;22.50
20174;DHT22;10246;50.620;7.232;2022-12-07T04:21:34;6.20;22.30
20174;DHT22;10246;50.620;7.232;2022-12-07T04:24:03;6.10;22.40
20174;DHT22;10246;50.620;7.232;2022-12-07T04:26:29;6.10;22.50
20174;DHT22;10246;50.620;7.232;2022-12-07T04:28:56;6.10;22.60
20174;DHT22;10246;50.620;7.232;2022-12-07T04:31:23;6.30;22.60
20174;DHT22;10246;50.620;7.232;2022-12-07T04:33:51;6.20;22.00
20174;DHT22;10246;50.620;7.232;2022-12-07T04:36:18;6.20;21.90
20174;DHT22;10246;50.620;7.232;2022-12-07T04:38:45;6.30;22.10
20174;DHT22;10246;50.620;7.232;2022-12-07T04:41:12;6.20;22.00
20174;DHT22;10246;50.620;7.232;2022-12-07T04:43:38;6.20;22.70
20174;DHT22;10246;50.620;7.232;2022-12-07T04:46:05;6.10;23.20
20174;DHT22;10246;50.620;7.232;2022-12-07T04:48:32;6.10;23.30
20174;DHT22;10246;50.620;7.232;2022-12-07T04:51:02;6.10;23.80
20174;DHT22;10246;50.620;7.232;2022-12-07T04:53:29;6.10;23.80
20174;DHT22;10246;50.620;7.232;2022-12-07T04:55:56;6.10;23.80
20174;DHT22;10246;50.620;7.232;2022-12-07T04:58:24;6.20;23.60
20174;DHT22;10246;50.620;7.232;2022-12-07T05:00:54;6.20;23.20
20174;DHT22;10246;50.620;7.232;2022-12-07T05:03:20;6.10;23.00
20174;DHT22;10246;50.620;7.232;2022-12-07T05:05:47;6.20;23.30
20174;DHT22;10246;50.620;7.232;2022-12-07T05:08:15;6.20;22.70
20174;DHT22;10246;50.620;7.232;2022-12-07T05:10:42;6.20;22.40
20174;DHT22;10246;50.620;7.232;2022-12-07T05:13:08;6.20;21.60
20174;DHT22;10246;50.620;7.232;2022-12-07T05:15:35;6.10;22.10
20174;DHT22;10246;50.620;7.232;2022-12-07T05:18:02;6.00;22.80
20174;DHT22;10246;50.620;7.232;2022-12-07T05:20:29;6.00;23.30
20174;DHT22;10246;50.620;7.232;2022-12-07T05:22:56;6.10;23.50
20174;DHT22;10246;50.620;7.232;2022-12-07T05:25:25;6.20;23.00
20174;DHT22;10246;50.620;7.232;2022-12-07T05:27:52;6.20;22.60
20174;DHT22;10246;50.620;7.232;2022-12-07T05:30:18;6.20;22.30
20174;DHT22;10246;50.620;7.232;2022-12-07T05:32:45;6.20;22.60
20174;DHT22;10246;50.620;7.232;2022-12-07T05:35:12;6.20;23.00
20174;DHT22;10246;50.620;7.232;2022-12-07T05:37:38;6.10;22.90
20174;DHT22;10246;50.620;7.232;2022-12-07T05:40:06;6.10;22.50
20174;DHT22;10246;50.620;7.232;2022-12-07T05:42:35;6.10;22.20
20174;DHT22;10246;50.620;7.232;2022-12-07T05:45:03;6.20;22.30
20174;DHT22;10246;50.620;7.232;2022-12-07T05:47:30;6.10;22.50
20174;DHT22;10246;50.620;7.232;2022-12-07T05:49:57;6.20;22.70
20174;DHT22;10246;50.620;7.232;2022-12-07T05:52:25;6.30;21.80
20174;DHT22;10246;50.620;7.232;2022-12-07T05:54:52;6.30;21.10
20174;DHT22;10246;50.620;7.232;2022-12-07T05:57:19;6.20;21.50
20174;DHT22;10246;50.620;7.232;2022-12-07T05:59:47;6.10;22.30
20174;DHT22;10246;50.620;7.232;2022-12-07T06:02:15;6.10;22.90
20174;DHT22;10246;50.620;7.232;2022-12-07T06:04:43;6.20;23.00
20174;DHT22;10246;50.620;7.232;2022-12-07T06:07:12;6.20;22.30
20174;DHT22;10246;50.620;7.232;2022-12-07T06:09:39;6.20;22.40
20174;DHT22;10246;50.620;7.232;2022-12-07T06:12:08;6.10;22.50
20174;DHT22;10246;50.620;7.232;2022-12-07T06:14:54;6.10;22.90
20174;DHT22;10246;50.620;7.232;2022-12-07T06:17:21;6.20;22.70
20174;DHT22;10246;50.620;7.232;2022-12-07T06:19:48;6.30;22.60
20174;DHT22;10246;50.620;7.232;2022-12-07T06:22:14;6.30;21.50
20174;DHT22;10246;50.620;7.232;2022-12-07T06:24:42;6.20;21.60
20174;DHT22;10246;50.620;7.232;2022-12-07T06:27:08;6.20;22.10
20174;DHT22;10246;50.620;7.232;2022-12-07T06:29:35;6.20;22.40
20174;DHT22;10246;50.620;7.232;2022-12-07T06:32:04;6.20;21.90
20174;DHT22;10246;50.620;7.232;2022-12-07T06:34:31;6.20;22.10
20174;DHT22;10246;50.620;7.232;2022-12-07T06:36:58;6.20;22.20
20174;DHT22;10246;50.620;7.232;2022-12-07T06:39:26;6.20;21.20
20174;DHT22;10246;50.620;7.232;2022-12-07T06:41:53;6.20;21.50
20174;DHT22;10246;50.620;7.232;2022-12-07T06:44:21;6.10;22.80
20174;DHT22;10246;50.620;7.232;2022-12-07T06:46:48;6.10;22.70
20174;DHT22;10246;50.620;7.232;2022-12-07T06:49:16;6.10;23.40
20174;DHT22;10246;50.620;7.232;2022-12-07T06:51:43;6.10;23.10
20174;DHT22;10246;50.620;7.232;2022-12-07T06:54:11;6.10;23.40
20174;DHT22;10246;50.620;7.232;2022-12-07T06:56:38;6.20;22.60
20174;DHT22;10246;50.620;7.232;2022-12-07T06:59:05;6.30;21.30
20174;DHT22;10246;50.620;7.232;2022-12-07T07:01:33;6.30;20.60
20174;DHT22;10246;50.620;7.232;2022-12-07T07:04:01;6.20;20.50
20174;DHT22;10246;50.620;7.232;2022-12-07T07:06:29;6.10;21.00
20174;DHT22;10246;50.620;7.232;2022-12-07T07:08:56;6.20;21.50
20174;DHT22;10246;50.620;7.232;2022-12-07T07:11:23;6.20;20.80
20174;DHT22;10246;50.620;7.232;2022-12-07T07:13:50;6.10;20.40
20174;DHT22;10246;50.620;7.232;2022-12-07T07:16:19;6.00;21.30
20174;DHT22;10246;50.620;7.232;2022-12-07T07:18:45;6.10;20.80
20174;DHT22;10246;50.620;7.232;2022-12-07T07:21:12;6.10;20.70
20174;DHT22;10246;50.620;7.232;2022-12-07T07:23:40;6.10;21.10
20174;DHT22;10246;50.620;7.232;2022-12-07T07:26:07;6.00;21.80
20174;DHT22;10246;50.620;7.232;2022-12-07T07:28:33;6.10;21.60
20174;DHT22;10246;50.620;7.232;2022-12-07T07:31:00;6.20;20.30
20174;DHT22;10246;50.620;7.232;2022-12-07T07:33:27;6.20;19.90
20174;DHT22;10246;50.620;7.232;2022-12-07T07:35:53;6.10;20.10
20174;DHT22;10246;50.620;7.232;2022-12-07T07:38:20;6.10;20.60
20174;DHT22;10246;50.620;7.232;2022-12-07T07:40:48;6.00;20.70
20174;DHT22;10246;50.620;7.232;2022-12-07T07:43:15;6.00;21.60
20174;DHT22;10246;50.620;7.232;2022-12-07T07:45:42;6.00;22.00
20174;DHT22;10246;50.620;7.232;2022-12-07T07:48:08;6.00;22.50
20174;DHT22;10246;50.620;7.232;2022-12-07T07:50:35;6.00;22.90
20174;DHT22;10246;50.620;7.232;2022-12-07T07:53:02;6.00;23.50
20174;DHT22;10246;50.620;7.232;2022-12-07T07:55:28;6.00;23.40
20174;DHT22;10246;50.620;7.232;2022-12-07T07:57:56;6.00;23.00
20174;DHT22;10246;50.620;7.232;2022-12-07T08:00:23;6.00;22.60
20174;DHT22;10246;50.620;7.232;2022-12-07T08:02:50;6.00;22.80
20174;DHT22;10246;50.620;7.232;2022-12-07T08:05:17;6.00;22.90
20174;DHT22;10246;50.620;7.232;2022-12-07T08:07:44;6.10;22.90
20174;DHT22;10246;50.620;7.232;2022-12-07T08:10:12;6.10;21.50
20174;DHT22;10246;50.620;7.232;2022-12-07T08:12:39;6.00;21.60
20174;DHT22;10246;50.620;7.232;2022-12-07T08:15:29;6.00;22.70
20174;DHT22;10246;50.620;7.232;2022-12-07T08:17:56;6.10;23.40
20174;DHT22;10246;50.620;7.232;2022-12-07T08:20:23;6.00;23.80
20174;DHT22;10246;50.620;7.232;2022-12-07T08:22:49;6.10;23.00
20174;DHT22;10246;50.620;7.232;2022-12-07T08:25:16;6.00;22.40
20174;DHT22;10246;50.620;7.232;2022-12-07T08:27:43;6.10;21.50
20174;DHT22;10246;50.620;7.232;2022-12-07T08:30:10;6.10;21.40
20174;DHT22;10246;50.620;7.232;2022-12-07T08:32:38;6.10;21.40
20174;DHT22;10246;50.620;7.232;2022-12-07T08:35:06;6.20;21.40
20174;DHT22;10246;50.620;7.232;2022-12-07T08:37:33;6.20;21.40
20174;DHT22;10246;50.620;7.232;2022-12-07T08:39:59;6.20;21.20
20174;DHT22;10246;50.620;7.232;2022-12-07T08:42:26;6.10;21.30
20174;DHT22;10246;50.620;7.232;2022-12-07T08:44:55;6.20;21.90
20174;DHT22;10246;50.620;7.232;2022-12-07T08:47:22;6.30;20.20
20174;DHT22;10246;50.620;7.232;2022-12-07T08:49:52;6.20;19.80
20174;DHT22;10246;50.620;7.232;2022-12-07T08:52:19;6.20;20.50
20174;DHT22;10246;50.620;7.232;2022-12-07T08:54:47;6.20;20.20
20174;DHT22;10246;50.620;7.232;2022-12-07T08:57:21;6.20;20.30
20174;DHT22;10246;50.620;7.232;2022-12-07T08:59:48;6.20;21.10
20174;DHT22;10246;50.620;7.232;2022-12-07T09:02:15;6.30;21.40
20174;DHT22;10246;50.620;7.232;2022-12-07T09:04:42;6.30;20.90
20174;DHT22;10246;50.620;7.232;2022-12-07T09:07:10;6.30;21.50
20174;DHT22;10246;50.620;7.232;2022-12-07T09:09:36;6.30;21.20
20174;DHT22;10246;50.620;7.232;2022-12-07T09:12:03;6.30;21.30
20174;DHT22;10246;50.620;7.232;2022-12-07T09:14:30;6.40;21.30
20174;DHT22;10246;50.620;7.232;2022-12-07T09:17:05;6.40;21.20
20174;DHT22;10246;50.620;7.232;2022-12-07T09:19:32;6.40;20.60
20174;DHT22;10246;50.620;7.232;2022-12-07T09:21:59;6.40;21.00
20174;DHT22;10246;50.620;7.232;2022-12-07T09:24:27;6.50;20.50
20174;DHT22;10246;50.620;7.232;2022-12-07T09:26:54;6.60;20.10
20174;DHT22;10246;50.620;7.232;2022-12-07T09:29:21;6.50;20.60
20174;DHT22;10246;50.620;7.232;2022-12-07T09:31:48;6.60;21.00
20174;DHT22;10246;50.620;7.232;2022-12-07T09:34:15;6.60;21.60
20174;DHT22;10246;50.620;7.232;2022-12-07T09:36:41;6.50;21.50
20174;DHT22;10246;50.620;7.232;2022-12-07T09:39:08;6.50;21.20
20174;DHT22;10246;50.620;7.232;2022-12-07T09:41:39;6.60;21.00
20174;DHT22;10246;50.620;7.232;2022-12-07T09:44:09;6.60;20.70
20174;DHT22;10246;50.620;7.232;2022-12-07T09:46:39;6.60;20.60
20174;DHT22;10246;50.620;7.232;2022-12-07T09:49:11;6.70;20.90
20174;DHT22;10246;50.620;7.232;2022-12-07T09:51:38;6.70;19.40
20174;DHT22;10246;50.620;7.232;2022-12-07T09:54:05;6.70;19.20
20174;DHT22;10246;50.620;7.232;2022-12-07T09:56:32;6.80;17.80
20174;DHT22;10246;50.620;7.232;2022-12-07T09:59:02;6.80;18.40
20174;DHT22;10246;50.620;7.232;2022-12-07T10:01:30;6.80;18.50
20174;DHT22;10246;50.620;7.232;2022-12-07T10:04:02;6.80;17.90
20174;DHT22;10246;50.620;7.232;2022-12-07T10:06:32;6.90;17.60
20174;DHT22;10246;50.620;7.232;2022-12-07T10:08:58;7.00;15.80
20174;DHT22;10246;50.620;7.232;2022-12-07T10:11:25;6.90;15.70
20174;DHT22;10246;50.620;7.232;2022-12-07T10:13:53;6.90;16.60
20174;DHT22;10246;50.620;7.232;2022-12-07T10:16:37;6.90;16.80
20174;DHT22;10246;50.620;7.232;2022-12-07T10:19:20;6.90;17.50
20174;DHT22;10246;50.620;7.232;2022-12-07T10:22:01;7.00;16.50
20174;DHT22;10246;50.620;7.232;2022-12-07T10:24:29;7.10;15.60
20174;DHT22;10246;50.620;7.232;2022-12-07T10:26:57;7.10;15.10
20174;DHT22;10246;50.620;7.232;2022-12-07T10:29:29;7.10;15.10
20174;DHT22;10246;50.620;7.232;2022-12-07T10:31:59;7.10;16.10
20174;DHT22;10246;50.620;7.232;2022-12-07T10:34:28;7.10;16.20
20174;DHT22;10246;50.620;7.232;2022-12-07T10:37:13;7.20;15.30
20174;DHT22;10246;50.620;7.232;2022-12-07T10:39:42;7.20;14.00
20174;DHT22;10246;50.620;7.232;2022-12-07T10:42:16;7.30;12.60
20174;DHT22;10246;50.620;7.232;2022-12-07T10:44:43;7.20;13.20
20174;DHT22;10246;50.620;7.232;2022-12-07T10:47:32;7.20;13.80
20174;DHT22;10246;50.620;7.232;2022-12-07T10:50:23;7.20;15.10
20174;DHT22;10246;50.620;7.232;2022-12-07T10:53:07;7.30;13.70
20174;DHT22;10246;50.620;7.232;2022-12-07T10:55:45;7.40;13.20
20174;DHT22;10246;50.620;7.232;2022-12-07T10:58:29;7.40;11.40
20174;DHT22;10246;50.620;7.232;2022-12-07T11:01:03;7.40;12.60
20174;DHT22;10246;50.620;7.232;2022-12-07T11:03:56;7.50;11.50
20174;DHT22;10246;50.620;7.232;2022-12-07T11:06:34;7.50;11.50
20174;DHT22;10246;50.620;7.232;2022-12-07T11:09:23;7.60;10.20
20174;DHT22;10246;50.620;7.232;2022-12-07T11:12:01;7.50;10.40
20174;DHT22;10246;50.620;7.232;2022-12-07T11:14:37;7.60;11.00
20174;DHT22;10246;50.620;7.232;2022-12-07T11:17:11;7.70;11.20
20174;DHT22;10246;50.620;7.232;2022-12-07T11:19:52;7.70;11.60
20174;DHT22;10246;50.620;7.232;2022-12-07T11:22:28;7.60;11.60
20174;DHT22;10246;50.620;7.232;2022-12-07T11:25:02;7.70;10.40
20174;DHT22;10246;50.620;7.232;2022-12-07T11:27:47;7.70;10.20
20174;DHT22;10246;50.620;7.232;2022-12-07T11:30:18;7.80;10.50
20174;DHT22;10246;50.620;7.232;2022-12-07T11:33:00;7.80;7.80
20174;DHT22;10246;50.620;7.232;2022-12-07T11:35:38;7.80;9.30
20174;DHT22;10246;50.620;7.232;2022-12-07T11:38:14;7.90;8.20
20174;DHT22;10246;50.620;7.232;2022-12-07T11:40:43;7.90;6.80
20174;DHT22;10246;50.620;7.232;2022-12-07T11:43:17;7.90;7.90
20174;DHT22;10246;50.620;7.232;2022-12-07T11:45:50;8.00;7.30
20174;DHT22;10246;50.620;7.232;2022-12-07T11:48:22;8.00;7.70
20174;DHT22;10246;50.620;7.232;2022-12-07T11:50:55;8.00;6.90
20174;DHT22;10246;50.620;7.232;2022-12-07T11:53:26;8.10;7.30
20174;DHT22;10246;50.620;7.232;2022-12-07T11:55:57;8.10;6.40
20174;DHT22;10246;50.620;7.232;2022-12-07T11:58:47;8.20;5.30
20174;DHT22;10246;50.620;7.232;2022-12-07T12:01:28;8.10;4.20
20174;DHT22;10246;50.620;7.232;2022-12-07T12:04:05;8.10;6.20
20174;DHT22;10246;50.620;7.232;2022-12-07T12:06:34;7.90;5.80
20174;DHT22;10246;50.620;7.232;2022-12-07T12:09:06;7.80;4.80
20174;DHT22;10246;50.620;7.232;2022-12-07T12:11:49;7.80;5.50
20174;DHT22;10246;50.620;7.232;2022-12-07T12:14:30;7.70;6.00
20174;DHT22;10246;50.620;7.232;2022-12-07T12:17:13;7.70;7.40
20174;DHT22;10246;50.620;7.232;2022-12-07T12:19:58;7.70;8.30
20174;DHT22;10246;50.620;7.232;2022-12-07T12:22:34;7.80;9.20
20174;DHT22;10246;50.620;7.232;2022-12-07T12:25:04;8.00;6.70
20174;DHT22;10246;50.620;7.232;2022-12-07T12:27:33;8.20;6.10
20174;DHT22;10246;50.620;7.232;2022-12-07T12:30:04;8.30;5.90
20174;DHT22;10246;50.620;7.232;2022-12-07T12:32:38;8.50;4.50
20174;DHT22;10246;50.620;7.232;2022-12-07T12:35:27;8.60;2.30
20174;DHT22;10246;50.620;7.232;2022-12-07T12:38:25;8.50;3.70
20174;DHT22;10246;50.620;7.232;2022-12-07T12:40:53;8.60;2.40
20174;DHT22;10246;50.620;7.232;2022-12-07T12:43:51;8.70;1.00
20174;DHT22;10246;50.620;7.232;2022-12-07T12:46:49;8.70;1.00
20174;DHT22;10246;50.620;7.232;2022-12-07T12:58:39;8.60;1.00
20174;DHT22;10246;50.620;7.232;2022-12-07T13:07:12;8.40;1.00
20174;DHT22;10246;50.620;7.232;2022-12-07T13:09:43;8.30;1.00
20174;DHT22;10246;50.620;7.232;2022-12-07T13:12:13;8.20;1.00
20174;DHT22;10246;50.620;7.232;2022-12-07T13:14:57;8.10;1.00
20174;DHT22;10246;50.620;7.232;2022-12-07T13:17:59;8.00;2.60
20174;DHT22;10246;50.620;7.232;2022-12-07T13:20:47;7.90;2.00
20174;DHT22;10246;50.620;7.232;2022-12-07T13:23:19;7.90;2.70
20174;DHT22;10246;50.620;7.232;2022-12-07T13:25:55;7.90;2.60
20174;DHT22;10246;50.620;7.232;2022-12-07T13:28:26;7.70;3.10
20174;DHT22;10246;50.620;7.232;2022-12-07T13:31:21;7.70;3.80
20174;DHT22;10246;50.620;7.232;2022-12-07T13:33:50;7.80;4.30
20174;DHT22;10246;50.620;7.232;2022-12-07T13:36:21;7.80;4.20
20174;DHT22;10246;50.620;7.232;2022-12-07T13:38:50;7.80;4.60
20174;DHT22;10246;50.620;7.232;2022-12-07T13:41:19;7.80;4.20
20174;DHT22;10246;50.620;7.232;2022-12-07T13:43:50;7.70;4.80
20174;DHT22;10246;50.620;7.232;2022-12-07T13:46:20;7.70;5.10
20174;DHT22;10246;50.620;7.232;2022-12-07T13:48:51;7.70;6.30
20174;DHT22;10246;50.620;7.232;2022-12-07T13:51:20;7.70;6.00
20174;DHT22;10246;50.620;7.232;2022-12-07T13:53:48;7.50;4.90
20174;DHT22;10246;50.620;7.232;2022-12-07T13:56:15;7.30;5.60
20174;DHT22;10246;50.620;7.232;2022-12-07T13:58:42;7.10;7.20
20174;DHT22;10246;50.620;7.232;2022-12-07T14:01:10;7.20;8.10
20174;DHT22;10246;50.620;7.232;2022-12-07T14:03:40;7.30;6.70
20174;DHT22;10246;50.620;7.232;2022-12-07T14:06:20;7.20;7.80
20174;DHT22;10246;50.620;7.232;2022-12-07T14:08:50;7.10;9.80
20174;DHT22;10246;50.620;7.232;2022-12-07T14:11:31;7.20;9.80
20174;DHT22;10246;50.620;7.232;2022-12-07T14:13:59;7.20;9.40
20174;DHT22;10246;50.620;7.232;2022-12-07T14:16:29;7.20;9.30
20174;DHT22;10246;50.620;7.232;2022-12-07T14:18:59;7.20;9.00
20174;DHT22;10246;50.620;7.232;2022-12-07T14:21:27;7.20;11.30
20174;DHT22;10246;50.620;7.232;2022-12-07T14:24:15;7.10;11.30
20174;DHT22;10246;50.620;7.232;2022-12-07T14:26:43;7.10;11.60
20174;DHT22;10246;50.620;7.232;2022-12-07T14:29:22;7.10;12.20
20174;DHT22;10246;50.620;7.232;2022-12-07T14:31:49;7.10;13.20
20174;DHT22;10246;50.620;7.232;2022-12-07T14:34:19;7.10;13.00
20174;DHT22;10246;50.620;7.232;2022-12-07T14:36:46;7.20;11.70
20174;DHT22;10246;50.620;7.232;2022-12-07T14:39:13;7.10;13.30
20174;DHT22;10246;50.620;7.232;2022-12-07T14:41:41;7.20;13.80
20174;DHT22;10246;50.620;7.232;2022-12-07T14:44:17;7.00;13.00
20174;DHT22;10246;50.620;7.232;2022-12-07T14:46:44;7.00;12.70
20174;DHT22;10246;50.620;7.232;2022-12-07T14:49:11;7.00;11.20
20174;DHT22;10246;50.620;7.232;2022-12-07T14:51:40;6.90;12.10
20174;DHT22;10246;50.620;7.232;2022-12-07T14:54:14;6.90;11.90
20174;DHT22;10246;50.620;7.232;2022-12-07T14:56:42;6.80;13.00
20174;DHT22;10246;50.620;7.232;2022-12-07T14:59:09;6.80;13.60
20174;DHT22;10246;50.620;7.232;2022-12-07T15:01:38;6.80;13.70
20174;DHT22;10246;50.620;7.232;2022-12-07T15:04:05;6.80;14.30
20174;DHT22;10246;50.620;7.232;2022-12-07T15:06:32;6.70;14.10
20174;DHT22;10246;50.620;7.232;2022-12-07T15:09:00;6.70;13.30
20174;DHT22;10246;50.620;7.232;2022-12-07T15:11:28;6.60;13.30
20174;DHT22;10246;50.620;7.232;2022-12-07T15:13:54;6.60;14.30
20174;DHT22;10246;50.620;7.232;2022-12-07T15:16:40;6.70;14.80
20174;DHT22;10246;50.620;7.232;2022-12-07T15:19:12;6.60;15.50
20174;DHT22;10246;50.620;7.232;2022-12-07T15:21:39;6.50;15.80
20174;DHT22;10246;50.620;7.232;2022-12-07T15:24:08;6.60;14.80
20174;DHT22;10246;50.620;7.232;2022-12-07T15:26:35;6.60;13.40
20174;DHT22;10246;50.620;7.232;2022-12-07T15:29:02;6.60;12.60
20174;DHT22;10246;50.620;7.232;2022-12-07T15:31:29;6.50;13.20
20174;DHT22;10246;50.620;7.232;2022-12-07T15:33:56;6.40;13.70
20174;DHT22;10246;50.620;7.232;2022-12-07T15:36:24;6.50;14.60
20174;DHT22;10246;50.620;7.232;2022-12-07T15:38:52;6.40;15.70
20174;DHT22;10246;50.620;7.232;2022-12-07T15:41:21;6.40;16.90
20174;DHT22;10246;50.620;7.232;2022-12-07T15:43:48;6.30;17.40
20174;DHT22;10246;50.620;7.232;2022-12-07T15:46:34;6.30;18.20
20174;DHT22;10246;50.620;7.232;2022-12-07T15:49:03;6.30;18.70
20174;DHT22;10246;50.620;7.232;2022-12-07T15:51:30;6.30;19.10
20174;DHT22;10246;50.620;7.232;2022-12-07T15:53:57;6.30;19.00
20174;DHT22;10246;50.620;7.232;2022-12-07T15:56:26;6.30;19.20
20174;DHT22;10246;50.620;7.232;2022-12-07T15:58:52;6.30;19.20
20174;DHT22;10246;50.620;7.232;2022-12-07T16:01:19;6.30;19.00
20174;DHT22;10246;50.620;7.232;2022-12-07T16:03:47;6.20;18.80
20174;DHT22;10246;50.620;7.232;2022-12-07T16:06:16;6.20;19.30
20174;DHT22;10246;50.620;7.232;2022-12-07T16:08:44;6.20;19.40
20174;DHT22;10246;50.620;7.232;2022-12-07T16:11:11;6.20;19.50
20174;DHT22;10246;50.620;7.232;2022-12-07T16:13:39;6.10;19.90
20174;DHT22;10246;50.620;7.232;2022-12-07T16:16:09;6.10;20.40
20174;DHT22;10246;50.620;7.232;2022-12-07T16:18:36;6.10;20.30
20174;DHT22;10246;50.620;7.232;2022-12-07T16:21:03;6.10;19.80
20174;DHT22;10246;50.620;7.232;2022-12-07T16:23:30;6.10;20.80